Bay Area Weather


DO NOT USE THIS INFORMATION FOR FLIGHT PLANNING AND/OR NAVIGATION

Bay Area Weather Map


Current METARs

Observation for Reid-Hillview (KRHV) at 11/22/2017 20:47:00 PST
Airspace now is DELTA. Weather outlook: VFR - visibility 10, ceiling 11000.
station: KRHV
type: routine report, cycle 5 (automatic report)
time: Thu Nov 23 04:47:00 2017
temperature: 17.0 C
dew point: 14.0 C
wind: calm
visibility: 10 miles
pressure: 1019.0 mb
sky: broken clouds at 11000 feet
METAR: KRHV 230447Z 00000KT 10SM BKN110 17/14 A3009
Observation for San Jose (KSJC) at 11/22/2017 20:53:00 PST
Airspace now is CHARLIE. Weather outlook: VFR - visibility 10, ceiling 12000.
station: KSJC
type: routine report, cycle 5 (automatic report)
time: Thu Nov 23 04:53:00 2017
temperature: 18.3 C
dew point: 14.4 C
wind: calm
visibility: 10 miles
pressure: 1020.0 mb
sky: a few clouds at 5000 feet
     scattered clouds at 8500 feet
     broken clouds at 12000 feet
sea-level pressure: 1019.9 mb
remarks:
- Automated station (type 2)
METAR: KSJC 230453Z 00000KT 10SM FEW050 SCT085 BKN120 18/14 A3012 RMK AO2 SLP199 T01830144
Observation for Moffett Field (KNUQ) at 11/22/2017 20:56:00 PST
Airspace now is DELTA. Weather outlook: VFR - visibility 10, ceiling 18000.
station: KNUQ
type: routine report, cycle 5 (automatic report)
time: Thu Nov 23 04:56:00 2017
temperature: 16.7 C
dew point: 14.4 C
wind: calm
visibility: 10 miles
pressure: 1020.3 mb
sky: clear
sea-level pressure: 1020.4 mb
remarks:
- Automated station (type 2)
METAR: KNUQ 230456Z 00000KT 10SM CLR 17/14 A3013 RMK AO2 SLP204 T01670144
Observation for Palo Alto (KPAO) at 11/22/2017 20:47:00 PST
Airspace now is GOLF. Weather outlook: VFR - visibility 10, ceiling 7500.
station: KPAO
type: routine report, cycle 5 (automatic report)
time: Thu Nov 23 04:47:00 2017
temperature: 15.0 C
dew point: 14.0 C
wind: calm
visibility: 10 miles
pressure: 1020.0 mb
sky: broken clouds at 7500 feet
- LAST
METAR: KPAO 230447Z 00000KT 10SM BKN075 15/14 A3012 RMK LAST
Observation for San Carlos (KSQL) at 11/22/2017 21:15:00 PST
Airspace now is GOLF. Weather outlook: VFR - visibility 10, ceiling 18000.
station: KSQL
type: routine report, cycle 5 (automatic report)
time: Thu Nov 23 05:15:00 2017
temperature: 15.0 C
dew point: 14.0 C
wind: calm
visibility: 10 miles
pressure: 1020.0 mb
sky: clear
remarks:
- Automated station (type 2)
METAR: KSQL 230515Z AUTO 00000KT 10SM CLR 15/14 A3012 RMK AO2
Observation for Half Moon Bay (KHAF) at 11/22/2017 21:15:00 PST
Airspace now is GOLF. Weather outlook: Marginal VFR - visibility 5, ceiling 18000.
station: KHAF
type: routine report, cycle 5 (automatic report)
time: Thu Nov 23 05:15:00 2017
temperature: 15.0 C
dew point: 13.0 C
wind: calm
visibility: 5 miles
pressure: 1019.6 mb
weather: mist
sky: scattered clouds at 200 feet
remarks:
- Automated station (type 2)
METAR: KHAF 230515Z AUTO 00000KT 5SM BR SCT002 15/13 A3011 RMK AO2
Observation for San Francisco (KSFO) at 11/22/2017 20:56:00 PST
Airspace now is BRAVO. Weather outlook: VFR - visibility 10, ceiling 14000.
station: KSFO
type: routine report, cycle 5 (automatic report)
time: Thu Nov 23 04:56:00 2017
temperature: 17.2 C
dew point: 13.9 C
wind: calm
visibility: 10 miles
pressure: 1020.0 mb
sky: broken clouds at 14000 feet
     overcast at 16000 feet
sea-level pressure: 1019.8 mb
remarks:
- Automated station (type 2)
METAR: KSFO 230456Z 00000KT 10SM BKN140 OVC160 17/14 A3012 RMK AO2 SLP198 T01720139
Observation for Oakland (KOAK) at 11/22/2017 20:53:00 PST
Airspace now is CHARLIE. Weather outlook: VFR - visibility 10, ceiling 16000.
station: KOAK
type: routine report, cycle 5 (automatic report)
time: Thu Nov 23 04:53:00 2017
temperature: 15.0 C
dew point: 13.9 C
wind: calm
visibility: 10 miles
pressure: 1020.0 mb
sky: broken clouds at 16000 feet
     broken clouds at 20000 feet
sea-level pressure: 1020.0 mb
remarks:
- Automated station (type 2)
METAR: KOAK 230453Z 00000KT 10SM BKN160 BKN200 15/14 A3012 RMK AO2 SLP200 T01500139
Observation for Hayward Executive (KHWD) at 11/22/2017 20:54:00 PST
Airspace now is GOLF. Weather outlook: VFR - visibility 10, ceiling 18000.
station: KHWD
type: routine report, cycle 5 (automatic report)
time: Thu Nov 23 04:54:00 2017
temperature: 16.7 C
dew point: 11.7 C
wind: calm
visibility: 10 miles
pressure: 1020.0 mb
sky: clear
sea-level pressure: 1020.9 mb
remarks:
- Automated station (type 2)
METAR: KHWD 230454Z 00000KT 10SM CLR 17/12 A3012 RMK AO2 SLP209 T01670117
Observation for Livermore (KLVK) at 11/22/2017 20:53:00 PST
Airspace now is GOLF. Weather outlook: VFR - visibility 10, ceiling 18000.
station: KLVK
type: routine report, cycle 5 (automatic report)
time: Thu Nov 23 04:53:00 2017
temperature: 15.6 C
dew point: 12.8 C
wind: calm
visibility: 10 miles
pressure: 1020.0 mb
sky: clear
sea-level pressure: 1019.8 mb
remarks:
- Automated station (type 2)
METAR: KLVK 230453Z 00000KT 10SM CLR 16/13 A3012 RMK AO2 SLP198 T01560128
Observation for South County (KE16) at 11/22/2017 21:15:00 PST
Airspace now is GOLF. Weather outlook: VFR - visibility 10, ceiling 18000.
station: KE16
type: routine report, cycle 5 (automatic report)
time: Thu Nov 23 05:15:00 2017
temperature: 17.0 C
dew point: 13.0 C
wind: WNW at 3 knots
visibility: 10 miles
pressure: 1020.7 mb
sky: a few clouds at 1400 feet
remarks:
- Automated station (type 2)
- PWINO PNO
METAR: KE16 230515Z AUTO 29003KT 10SM FEW014 17/13 A3014 RMK AO2 PWINO PNO
Observation for Hollister (KCVH) at 11/22/2017 21:15:00 PST
Airspace now is GOLF. Weather outlook: VFR - visibility 10, ceiling 18000.
station: KCVH
type: routine report, cycle 5 (automatic report)
time: Thu Nov 23 05:15:00 2017
temperature: 17.0 C
dew point: 13.0 C
wind: WNW at 3 knots
visibility: 10 miles
pressure: 1020.3 mb
sky: clear
- A01
METAR: KCVH 230515Z AUTO 29003KT 10SM CLR 17/13 A3013 RMK A01
Observation for Watsonville (KWVI) at 11/22/2017 20:53:00 PST
Airspace now is GOLF. Weather outlook: VFR - visibility 10, ceiling 18000.
station: KWVI
type: routine report, cycle 5 (automatic report)
time: Thu Nov 23 04:53:00 2017
temperature: 16.1 C
dew point: 15.6 C
wind: calm
visibility: 10 miles
pressure: 1019.6 mb
sky: clear
sea-level pressure: 1019.6 mb
remarks:
- Automated station (type 2)
- $
METAR: KWVI 230453Z AUTO 00000KT 10SM CLR 16/16 A3011 RMK AO2 SLP196 T01610156 $
Observation for Napa County (KAPC) at 11/22/2017 20:54:00 PST
Airspace now is GOLF. Weather outlook: VFR - visibility 10, ceiling 18000.
station: KAPC
type: routine report, cycle 5 (automatic report)
time: Thu Nov 23 04:54:00 2017
temperature: 12.2 C
dew point: 11.1 C
wind: N at 3 knots
visibility: 10 miles
pressure: 1020.3 mb
sky: clear
sea-level pressure: 1019.3 mb
remarks:
- Automated station (type 2)
METAR: KAPC 230454Z 35003KT 10SM CLR 12/11 A3013 RMK AO2 SLP193 T01220111
Observation for Santa Rosa (KSTS) at 11/22/2017 21:07:00 PST
Airspace now is GOLF. Weather outlook: Limited IFR - visibility 0, ceiling 18000.
station: KSTS
type: routine report, cycle 5 (automatic report)
time: Thu Nov 23 05:07:00 2017
temperature: 11.1 C
dew point: 11.1 C
wind: calm
visibility: 1/2 miles
pressure: 1020.7 mb
weather: fog
sky: indefinite ceilingclouds, visibility to 200 feet
remarks:
- Automated station (type 2)
METAR: KSTS 230507Z AUTO 00000KT 1/2SM FG VV002 11/11 A3014 RMK AO2 T01110111

Approximate Bay Tour Route